Time;durP1;ratioP1;P1;durP2;ratioP2;P2;SDS_P1;SDS_P2;PMS_P1;PMS_P2;Temp;Humidity;BMP_temperature;BMP_pressure;BME280_temperature;BME280_humidity;BME280_pressure;Samples;Min_cycle;Max_cycle;Signal;HPM_P1;HPM_P2
2022/09/06 00:00:57;;;;;;;27.25;25.08;;;20.50;99.90;;;;;;5015555;28;20346;-74
2022/09/06 00:03:26;;;;;;;27.38;24.92;;;20.40;99.90;;;;;;5017753;28;20046;-73
2022/09/06 00:05:53;;;;;;;27.33;25.15;;;20.50;99.90;;;;;;5015992;28;20064;-74
2022/09/06 00:08:20;;;;;;;27.27;25.13;;;20.40;99.90;;;;;;5015186;28;20045;-74
2022/09/06 00:10:47;;;;;;;27.77;25.65;;;20.40;99.90;;;;;;5014911;28;20048;-74
2022/09/06 00:13:13;;;;;;;27.08;25.23;;;20.40;99.90;;;;;;5019034;28;22116;-74
2022/09/06 00:15:40;;;;;;;27.15;25.25;;;20.40;99.90;;;;;;5014931;28;20096;-74
2022/09/06 00:18:07;;;;;;;27.08;25.08;;;20.40;99.90;;;;;;5017186;28;20823;-74
2022/09/06 00:20:40;;;;;;;27.63;25.63;;;20.40;99.90;;;;;;5015100;28;20142;-72
2022/09/06 00:23:07;;;;;;;26.52;24.52;;;20.40;99.90;;;;;;5016314;28;20091;-74
2022/09/06 00:25:34;;;;;;;27.83;25.83;;;20.40;99.90;;;;;;5015974;28;20049;-73
2022/09/06 00:28:03;;;;;;;27.27;25.27;;;20.30;99.90;;;;;;5015616;28;20188;-73
2022/09/06 00:30:31;;;;;;;27.52;25.58;;;20.30;99.90;;;;;;4999276;28;20048;-73
2022/09/06 00:32:59;;;;;;;27.63;25.70;;;20.20;99.90;;;;;;5000731;28;20053;-74
2022/09/06 00:35:26;;;;;;;27.67;25.75;;;20.10;99.90;;;;;;5017342;28;20038;-74
2022/09/06 00:38:00;;;;;;;27.50;25.48;;;20.20;99.90;;;;;;5018479;28;21291;-73
2022/09/06 00:40:30;;;;;;;27.80;25.83;;;20.20;99.90;;;;;;5015745;28;20045;-74
2022/09/06 00:42:57;;;;;;;26.75;24.95;;;20.20;99.90;;;;;;5017334;28;20099;-74
2022/09/06 00:45:26;;;;;;;27.02;25.23;;;20.20;99.90;;;;;;5018551;28;20068;-73
2022/09/06 00:47:54;;;;;;;27.77;25.58;;;20.10;99.90;;;;;;5016788;28;20103;-74
2022/09/06 00:50:21;;;;;;;27.38;25.33;;;20.10;99.90;;;;;;5015167;28;20041;-73
2022/09/06 00:52:50;;;;;;;26.90;25.10;;;20.10;99.90;;;;;;5015708;28;20485;-73
2022/09/06 00:55:18;;;;;;;27.27;25.35;;;20.10;99.90;;;;;;5017084;28;20504;-73
2022/09/06 00:57:49;;;;;;;27.00;25.17;;;20.00;99.90;;;;;;5016464;28;20489;-74
2022/09/06 01:00:18;;;;;;;27.02;25.13;;;20.00;99.90;;;;;;5015192;28;20501;-74
2022/09/06 01:02:45;;;;;;;27.98;25.83;;;20.00;99.90;;;;;;5014902;28;20104;-74
2022/09/06 01:05:13;;;;;;;27.88;25.83;;;19.90;99.90;;;;;;5017480;28;20076;-74
2022/09/06 01:07:50;;;;;;;27.55;25.65;;;19.90;99.90;;;;;;5013617;28;20441;-73
2022/09/06 01:10:31;;;;;;;28.00;25.80;;;19.80;99.90;;;;;;5014210;28;20095;-73
2022/09/06 01:12:57;;;;;;;27.15;24.92;;;19.70;99.90;;;;;;4998597;28;20044;-74
2022/09/06 01:15:48;;;;;;;27.02;25.10;;;19.70;99.90;;;;;;5016039;28;20080;-74
2022/09/06 01:18:35;;;;;;;27.00;25.20;;;19.70;99.90;;;;;;4921568;22;20076;-78
2022/09/06 01:21:26;;;;;;;26.65;24.75;;;19.60;99.90;;;;;;5047100;28;20044;-78
2022/09/06 01:24:30;;;;;;;27.00;24.98;;;19.60;99.90;;;;;;5064774;28;20070;-78
2022/09/06 01:27:22;;;;;;;26.85;24.75;;;19.60;99.90;;;;;;5050728;28;20040;-77
2022/09/06 01:29:52;;;;;;;26.35;24.55;;;19.60;99.90;;;;;;5080311;28;20102;-78
2022/09/06 01:32:40;;;;;;;27.60;25.67;;;19.50;99.90;;;;;;5057835;28;20048;-78
2022/09/06 01:35:27;;;;;;;26.83;24.70;;;19.50;99.90;;;;;;5045993;28;20036;-78
2022/09/06 01:37:55;;;;;;;26.33;24.35;;;19.50;99.90;;;;;;5062067;28;20118;-77
2022/09/06 01:40:22;;;;;;;26.08;24.27;;;19.60;99.90;;;;;;5064219;28;20040;-77
2022/09/06 01:42:52;;;;;;;26.25;24.17;;;19.50;99.90;;;;;;5077551;28;20238;-77
2022/09/06 01:45:31;;;;;;;26.48;24.77;;;19.50;99.90;;;;;;5060718;28;20140;-77
2022/09/06 01:48:23;;;;;;;26.63;24.83;;;19.50;99.90;;;;;;5059719;28;20044;-77
2022/09/06 01:51:08;;;;;;;26.67;24.90;;;19.50;99.90;;;;;;5066189;28;20040;-76
2022/09/06 01:53:54;;;;;;;;;;;19.40;99.90;;;;;;5074025;28;20044;-77
2022/09/06 01:56:23;;;;;;;27.13;25.13;;;19.40;99.90;;;;;;5065907;28;19959;-77
2022/09/06 01:59:15;;;;;;;27.90;25.70;;;19.40;99.90;;;;;;5048044;28;20040;-76
2022/09/06 02:02:19;;;;;;;27.45;25.52;;;19.40;99.90;;;;;;5066160;28;20036;-77
2022/09/06 02:04:50;;;;;;;27.30;25.17;;;19.40;99.90;;;;;;5034370;28;20048;-76
2022/09/06 02:07:17;;;;;;;27.75;25.73;;;19.40;99.90;;;;;;5076542;28;20303;-76
2022/09/06 02:09:48;;;;;;;27.98;26.00;;;19.40;99.90;;;;;;5055100;28;20530;-76
2022/09/06 02:12:18;;;;;;;27.58;25.58;;;19.40;99.90;;;;;;5052484;28;20563;-76
2022/09/06 02:14:55;;;;;;;27.23;25.05;;;19.40;99.90;;;;;;5039229;28;20531;-76
2022/09/06 02:17:29;;;;;;;27.38;25.55;;;19.40;99.90;;;;;;5066525;28;20132;-77
2022/09/06 02:20:04;;;;;;;27.10;25.10;;;19.30;99.90;;;;;;5034683;28;20079;-77
2022/09/06 02:22:37;;;;;;;27.63;25.63;;;19.30;99.90;;;;;;5076328;28;20411;-76
2022/09/06 02:25:07;;;;;;;27.30;25.20;;;19.30;99.90;;;;;;5074507;28;20511;-77
2022/09/06 02:27:35;;;;;;;27.25;25.40;;;19.30;99.90;;;;;;5071512;28;20775;-77
2022/09/06 02:30:04;;;;;;;27.92;25.98;;;19.20;99.90;;;;;;5056476;28;20040;-77
2022/09/06 02:32:36;;;;;;;28.25;26.15;;;19.30;99.90;;;;;;5052011;28;20396;-76
2022/09/06 02:35:15;;;;;;;27.73;25.73;;;19.40;99.90;;;;;;5050662;28;20048;-79
2022/09/06 02:37:43;;;;;;;27.15;25.25;;;19.30;99.90;;;;;;5079328;28;20257;-76
2022/09/06 02:40:10;;;;;;;27.20;25.30;;;19.20;99.90;;;;;;5081817;28;20059;-76
2022/09/06 02:42:39;;;;;;;27.50;25.60;;;19.20;99.90;;;;;;5086632;27;20043;-75
2022/09/06 02:45:06;;;;;;;27.58;25.60;;;19.20;99.90;;;;;;5081128;28;20505;-77
2022/09/06 02:47:33;;;;;;;27.70;25.50;;;19.20;99.90;;;;;;5101920;27;20124;-77
2022/09/06 02:49:59;;;;;;;27.70;25.55;;;19.10;99.90;;;;;;5083350;27;20065;-75
2022/09/06 02:52:26;;;;;;;27.73;25.63;;;19.20;99.90;;;;;;5100538;27;20504;-77
2022/09/06 02:54:53;;;;;;;27.40;25.52;;;19.20;99.90;;;;;;5066555;28;20043;-76
2022/09/06 02:57:20;;;;;;;27.73;25.73;;;19.20;99.90;;;;;;5097533;27;20051;-76
2022/09/06 02:59:47;;;;;;;28.13;25.77;;;19.10;99.90;;;;;;5085903;27;20083;-76
2022/09/06 03:02:14;;;;;;;29.50;27.15;;;19.10;99.90;;;;;;5080247;28;20035;-76
2022/09/06 03:04:41;;;;;;;28.27;26.15;;;19.10;99.90;;;;;;5106138;27;20042;-76
2022/09/06 03:07:08;;;;;;;27.35;25.45;;;19.20;99.90;;;;;;5085617;28;20785;-76
2022/09/06 03:09:34;;;;;;;28.33;26.33;;;19.10;99.90;;;;;;5108095;28;20039;-76
2022/09/06 03:12:01;;;;;;;27.55;25.63;;;19.10;99.90;;;;;;5100521;28;20044;-77
2022/09/06 03:14:28;;;;;;;27.65;25.65;;;19.10;99.90;;;;;;5105160;28;20032;-76
2022/09/06 03:16:55;;;;;;;28.25;26.25;;;19.10;99.90;;;;;;5084055;28;20065;-75
2022/09/06 03:19:22;;;;;;;28.33;26.33;;;19.20;99.90;;;;;;5087118;28;20404;-76
2022/09/06 03:21:49;;;;;;;27.95;25.85;;;19.10;99.90;;;;;;5086723;28;20061;-77
2022/09/06 03:24:16;;;;;;;27.75;25.83;;;19.10;99.90;;;;;;5100894;28;20105;-76
2022/09/06 03:26:43;;;;;;;28.50;26.50;;;19.10;99.90;;;;;;5104767;28;20067;-76
2022/09/06 03:29:09;;;;;;;28.52;26.50;;;19.10;99.90;;;;;;5075608;28;20183;-75
2022/09/06 03:31:36;;;;;;;27.60;25.60;;;19.10;99.90;;;;;;5084660;28;20070;-76
2022/09/06 03:34:03;;;;;;;29.38;27.25;;;19.10;99.90;;;;;;5098183;28;20510;-76
2022/09/06 03:36:35;;;;;;;29.08;26.83;;;19.10;99.90;;;;;;5085981;28;20483;-76
2022/09/06 03:39:02;;;;;;;28.30;26.17;;;19.20;99.90;;;;;;5083524;28;20051;-76
2022/09/06 03:41:29;;;;;;;28.73;26.48;;;19.10;99.90;;;;;;5085537;28;20040;-76
2022/09/06 03:43:56;;;;;;;28.52;26.33;;;19.10;99.90;;;;;;5085799;28;20043;-76
2022/09/06 03:46:22;;;;;;;28.65;26.42;;;19.10;99.90;;;;;;5082237;28;20051;-76
2022/09/06 03:48:49;;;;;;;28.45;26.40;;;19.10;99.90;;;;;;5097615;28;20118;-76
2022/09/06 03:51:16;;;;;;;28.45;26.42;;;19.10;99.90;;;;;;5105816;28;20035;-76
2022/09/06 03:53:43;;;;;;;28.73;26.73;;;19.00;99.90;;;;;;5088957;28;20820;-75
2022/09/06 03:56:09;;;;;;;29.08;26.98;;;19.00;99.90;;;;;;5110144;28;20047;-76
2022/09/06 03:58:36;;;;;;;30.20;28.00;;;19.00;99.90;;;;;;5091483;28;20128;-76
2022/09/06 04:01:09;;;;;;;28.75;26.55;;;19.00;99.90;;;;;;5107335;28;20560;-78
2022/09/06 04:03:37;;;;;;;29.23;27.05;;;18.90;99.90;;;;;;5083688;28;20469;-78
2022/09/06 04:06:05;;;;;;;28.08;25.88;;;18.80;99.90;;;;;;5082318;28;20056;-75
2022/09/06 04:08:32;;;;;;;29.63;27.42;;;19.00;99.90;;;;;;5073149;28;20428;-76
2022/09/06 04:10:59;;;;;;;30.00;27.58;;;19.10;99.90;;;;;;5084923;28;20507;-75
2022/09/06 04:13:27;;;;;;;29.08;26.92;;;19.10;99.90;;;;;;5085750;28;20043;-75
2022/09/06 04:15:54;;;;;;;28.95;26.88;;;19.00;99.90;;;;;;5086264;28;20506;-75
2022/09/06 04:18:21;;;;;;;29.45;27.02;;;19.00;99.90;;;;;;5100913;28;20089;-77
2022/09/06 04:20:50;;;;;;;29.63;27.17;;;19.00;99.90;;;;;;5084630;28;20043;-75
2022/09/06 04:23:18;;;;;;;30.40;27.88;;;19.00;99.90;;;;;;5098012;28;20055;-76
2022/09/06 04:25:50;;;;;;;29.60;27.40;;;18.80;99.90;;;;;;5110925;27;20111;-75
2022/09/06 04:28:17;;;;;;;29.33;27.23;;;18.90;99.90;;;;;;5106565;27;20119;-75
2022/09/06 04:30:55;;;;;;;30.42;27.77;;;18.90;99.90;;;;;;5103450;27;20067;-76
2022/09/06 04:33:25;;;;;;;29.60;27.05;;;19.10;99.90;;;;;;5115489;27;20036;-76
2022/09/06 04:35:55;;;;;;;29.23;27.10;;;19.10;99.90;;;;;;5087310;27;20043;-76
2022/09/06 04:38:24;;;;;;;30.42;28.23;;;18.90;99.90;;;;;;5094023;28;20746;-76
2022/09/06 04:40:51;;;;;;;30.20;27.80;;;18.70;99.90;;;;;;5081628;28;20348;-76
2022/09/06 04:43:18;;;;;;;29.25;27.15;;;18.70;99.90;;;;;;5101366;28;20051;-76
2022/09/06 04:45:44;;;;;;;29.02;27.02;;;18.60;99.90;;;;;;5090704;27;20075;-76
2022/09/06 04:48:11;;;;;;;30.23;28.13;;;18.60;99.90;;;;;;5064451;28;20050;-76
2022/09/06 04:50:39;;;;;;;29.90;27.70;;;18.60;99.90;;;;;;5086756;27;20055;-75
2022/09/06 04:53:06;;;;;;;30.52;28.10;;;18.60;99.90;;;;;;5087802;28;20593;-76
2022/09/06 04:55:33;;;;;;;29.50;27.40;;;18.70;99.90;;;;;;5086979;27;20074;-76
2022/09/06 04:58:00;;;;;;;29.58;27.35;;;18.80;99.90;;;;;;5104890;27;20051;-76
2022/09/06 05:00:28;;;;;;;29.83;27.75;;;18.80;99.90;;;;;;5084854;28;20044;-76
2022/09/06 05:02:55;;;;;;;31.83;29.30;;;18.80;99.90;;;;;;5084967;28;20065;-76
2022/09/06 05:05:22;;;;;;;30.13;28.02;;;18.80;99.90;;;;;;5064960;28;20039;-76
2022/09/06 05:07:54;;;;;;;29.48;27.23;;;18.80;99.90;;;;;;5104158;27;20039;-75
2022/09/06 05:10:22;;;;;;;30.45;28.17;;;18.70;99.90;;;;;;5102748;27;20499;-76
2022/09/06 05:12:50;;;;;;;30.20;27.90;;;18.60;99.90;;;;;;5084843;27;20301;-76
2022/09/06 05:15:18;;;;;;;30.55;28.17;;;18.70;99.90;;;;;;5083834;28;20063;-77
2022/09/06 05:17:44;;;;;;;30.52;28.20;;;18.60;99.90;;;;;;5109900;27;20047;-76
2022/09/06 05:20:11;;;;;;;29.58;27.40;;;18.60;99.90;;;;;;5079947;28;20089;-76
2022/09/06 05:22:39;;;;;;;30.98;28.60;;;18.50;99.90;;;;;;5110680;27;20054;-77
2022/09/06 05:25:07;;;;;;;32.00;29.55;;;18.50;99.90;;;;;;5061667;28;20479;-76
2022/09/06 05:27:34;;;;;;;30.02;27.92;;;18.50;99.90;;;;;;5081587;27;20244;-77
2022/09/06 05:30:02;;;;;;;31.80;29.52;;;18.60;99.90;;;;;;5067829;27;20413;-76
2022/09/06 05:32:29;;;;;;;31.10;28.83;;;18.60;99.90;;;;;;5108845;27;20354;-77
2022/09/06 05:34:56;;;;;;;32.42;30.17;;;18.50;99.90;;;;;;5102207;27;20295;-77
2022/09/06 05:37:23;;;;;;;32.72;30.50;;;18.60;99.90;;;;;;5105686;27;20081;-76
2022/09/06 05:39:50;;;;;;;31.95;29.77;;;18.60;99.90;;;;;;5101239;27;20210;-76
2022/09/06 05:42:17;;;;;;;33.83;31.23;;;18.50;99.90;;;;;;5070881;28;20092;-76
2022/09/06 05:44:45;;;;;;;32.00;29.75;;;18.40;99.90;;;;;;5103026;27;20052;-76
2022/09/06 05:47:12;;;;;;;32.45;30.02;;;18.50;99.90;;;;;;5100548;27;20116;-77
2022/09/06 05:49:39;;;;;;;32.10;29.90;;;18.50;99.90;;;;;;5080215;27;20076;-76
2022/09/06 05:52:05;;;;;;;31.92;29.35;;;18.70;99.90;;;;;;5095849;27;20511;-77
2022/09/06 05:54:32;;;;;;;30.92;28.63;;;18.60;99.90;;;;;;5073203;27;20039;-76
2022/09/06 05:56:59;;;;;;;31.02;28.58;;;18.50;99.90;;;;;;5091315;27;20047;-77
2022/09/06 05:59:26;;;;;;;29.70;27.63;;;18.40;99.90;;;;;;5083299;28;20039;-77
2022/09/06 06:01:53;;;;;;;30.95;28.67;;;18.30;99.90;;;;;;5106365;27;20120;-76
2022/09/06 06:04:21;;;;;;;31.30;28.85;;;18.20;99.90;;;;;;5087852;28;20044;-77
2022/09/06 06:06:48;;;;;;;30.90;28.58;;;18.20;99.90;;;;;;5070824;27;20043;-76
2022/09/06 06:09:15;;;;;;;30.05;27.85;;;18.40;99.90;;;;;;5099714;28;20441;-76
2022/09/06 06:11:42;;;;;;;31.55;29.20;;;18.30;99.90;;;;;;5111180;27;20039;-77
2022/09/06 06:14:09;;;;;;;31.00;28.50;;;18.30;99.90;;;;;;5108807;27;20074;-76
2022/09/06 06:16:37;;;;;;;30.17;27.92;;;18.60;99.90;;;;;;5105707;27;20039;-77
2022/09/06 06:19:03;;;;;;;30.98;28.80;;;18.60;99.90;;;;;;5111233;27;20047;-76
2022/09/06 06:21:32;;;;;;;31.17;28.95;;;18.70;99.90;;;;;;5083632;28;20039;-76
2022/09/06 06:24:01;;;;;;;32.50;30.17;;;18.60;99.90;;;;;;5070116;27;20367;-76
2022/09/06 06:26:32;;;;;;;32.05;29.65;;;18.70;99.90;;;;;;5087429;27;20425;-76
2022/09/06 06:29:00;;;;;;;32.03;29.73;;;18.80;99.90;;;;;;5107243;27;20044;-77
2022/09/06 06:31:32;;;;;;;32.20;29.90;;;18.90;99.90;;;;;;5102170;27;20306;-77
2022/09/06 06:34:01;;;;;;;31.38;29.08;;;19.00;99.90;;;;;;5088837;27;20046;-76
2022/09/06 06:36:32;;;;;;;32.40;29.80;;;19.10;99.90;;;;;;5105592;27;20650;-77
2022/09/06 06:39:00;;;;;;;31.75;29.25;;;19.20;99.90;;;;;;5086325;27;20047;-76
2022/09/06 06:41:29;;;;;;;30.73;28.63;;;19.40;99.90;;;;;;5070971;28;20171;-77
2022/09/06 06:44:02;;;;;;;32.17;29.50;;;19.40;99.90;;;;;;5066905;28;20121;-77
2022/09/06 06:46:31;;;;;;;31.85;29.23;;;19.50;99.90;;;;;;5081778;28;20047;-76
2022/09/06 06:48:58;;;;;;;31.83;29.42;;;19.60;99.90;;;;;;5112474;27;20292;-77
2022/09/06 06:51:28;;;;;;;32.50;29.55;;;19.60;99.90;;;;;;5087467;28;20104;-78
2022/09/06 06:53:58;;;;;;;30.90;28.55;;;19.90;99.90;;;;;;5072832;27;20057;-76
2022/09/06 06:56:28;;;;;;;32.05;29.20;;;20.10;99.90;;;;;;5090805;28;20108;-76
2022/09/06 06:58:57;;;;;;;31.25;28.92;;;20.10;99.90;;;;;;5088483;27;20043;-76
2022/09/06 07:01:25;;;;;;;31.60;29.40;;;20.30;99.90;;;;;;5064652;28;21294;-76
2022/09/06 07:03:53;;;;;;;31.13;28.90;;;20.40;99.90;;;;;;5088704;27;20073;-76
2022/09/06 07:06:21;;;;;;;32.10;29.75;;;20.40;99.90;;;;;;5086601;28;20043;-74
2022/09/06 07:09:08;;;;;;;32.00;29.80;;;20.30;99.90;;;;;;5104393;28;20118;-74
2022/09/06 07:11:34;;;;;;;31.63;29.38;;;20.30;99.90;;;;;;5083699;28;20128;-74
2022/09/06 07:14:01;;;;;;;30.48;28.38;;;20.40;99.90;;;;;;5068346;28;20055;-74
2022/09/06 07:19:17;;;;;;;29.65;27.65;;;20.90;99.90;;;;;;4954587;28;20054;-74
2022/09/06 07:22:04;;;;;;;30.50;28.40;;;21.30;99.90;;;;;;4972472;28;20135;-74
2022/09/06 07:24:32;;;;;;;31.15;28.95;;;21.70;99.90;;;;;;4962632;28;20518;-74
2022/09/06 07:26:59;;;;;;;30.80;28.70;;;21.80;99.90;;;;;;4962886;28;20456;-73
2022/09/06 07:29:45;;;;;;;30.88;28.88;;;21.90;99.90;;;;;;4970997;28;20048;-74
2022/09/06 07:32:12;;;;;;;30.15;28.17;;;22.10;99.90;;;;;;4962206;28;20089;-73
2022/09/06 07:34:39;;;;;;;31.23;29.08;;;22.40;99.90;;;;;;4957621;28;20047;-73
2022/09/06 07:37:06;;;;;;;31.35;29.17;;;22.50;99.90;;;;;;4963576;28;20489;-73
2022/09/06 07:39:34;;;;;;;31.08;29.00;;;22.50;99.90;;;;;;4956353;28;20141;-74
2022/09/06 07:42:02;;;;;;;31.23;29.05;;;22.40;99.90;;;;;;4952322;28;20506;-74
2022/09/06 07:44:29;;;;;;;31.05;28.58;;;22.50;99.90;;;;;;4960057;28;20101;-74
2022/09/06 07:46:56;;;;;;;31.48;29.13;;;22.50;99.90;;;;;;4965060;28;20501;-73
2022/09/06 07:49:42;;;;;;;30.13;28.13;;;22.60;99.90;;;;;;4964340;28;20134;-73
2022/09/06 07:52:29;;;;;;;31.15;28.75;;;22.70;99.90;;;;;;4943956;28;20039;-74
2022/09/06 07:55:16;;;;;;;30.75;28.63;;;22.80;99.90;;;;;;4952597;28;20266;-74
2022/09/06 07:57:42;;;;;;;30.27;28.30;;;22.90;99.90;;;;;;4958709;28;20054;-74
2022/09/06 08:00:10;;;;;;;31.60;29.60;;;22.80;99.90;;;;;;4959226;28;20081;-74
2022/09/06 08:02:39;;;;;;;31.52;29.42;;;22.70;99.90;;;;;;4965306;28;20479;-74
2022/09/06 08:05:06;;;;;;;30.40;28.50;;;22.80;99.90;;;;;;4961489;28;20046;-74
2022/09/06 08:07:53;;;;;;;31.33;29.15;;;23.00;99.90;;;;;;4971335;28;20109;-72
2022/09/06 08:10:40;;;;;;;31.80;29.67;;;23.40;99.90;;;;;;4980053;28;20121;-73
2022/09/06 08:13:07;;;;;;;31.58;29.48;;;23.20;99.90;;;;;;4959222;28;20039;-73
2022/09/06 08:15:33;;;;;;;32.33;30.17;;;23.40;99.90;;;;;;4959648;28;20042;-73
2022/09/06 08:18:01;;;;;;;32.15;29.92;;;23.30;99.90;;;;;;4962624;28;20051;-73
2022/09/06 08:20:27;;;;;;;31.20;29.25;;;23.40;99.90;;;;;;4962162;28;20105;-73
2022/09/06 08:22:54;;;;;;;31.23;28.92;;;23.20;99.90;;;;;;4974700;28;20050;-74
2022/09/06 08:25:21;;;;;;;31.65;29.52;;;23.30;99.90;;;;;;4970184;28;20144;-73
2022/09/06 08:27:48;;;;;;;32.03;29.77;;;23.50;99.90;;;;;;4968632;28;20132;-73
2022/09/06 08:30:15;;;;;;;33.15;30.60;;;23.60;99.90;;;;;;4961688;28;20046;-73
2022/09/06 08:32:41;;;;;;;29.50;27.60;;;23.90;99.90;;;;;;4958210;28;20469;-74
2022/09/06 08:35:09;;;;;;;29.80;28.08;;;24.20;99.90;;;;;;4957291;28;20494;-74
2022/09/06 08:37:35;;;;;;;32.47;30.27;;;24.40;99.90;;;;;;4962370;28;20670;-74
2022/09/06 08:40:03;;;;;;;31.35;29.33;;;24.70;99.90;;;;;;4964084;28;20588;-73
2022/09/06 08:42:30;;;;;;;31.05;29.15;;;24.60;99.90;;;;;;4966017;28;20097;-75
2022/09/06 08:44:59;;;;;;;30.88;28.77;;;24.60;99.90;;;;;;4964178;28;20067;-73
2022/09/06 08:47:26;;;;;;;31.77;29.60;;;25.10;99.90;;;;;;4963385;28;20051;-73
2022/09/06 08:49:59;;;;;;;30.65;28.50;;;25.00;99.90;;;;;;4964868;28;20032;-74
2022/09/06 08:52:48;;;;;;;31.35;29.00;;;24.70;99.90;;;;;;4961914;28;20565;-73
2022/09/06 08:55:38;;;;;;;30.50;28.50;;;24.60;99.90;;;;;;4963155;28;20122;-74
2022/09/06 08:58:14;;;;;;;30.13;28.35;;;24.70;99.90;;;;;;4968278;28;20047;-73
2022/09/06 09:00:49;;;;;;;31.13;29.25;;;24.90;99.90;;;;;;4962142;28;20133;-73
2022/09/06 09:03:17;;;;;;;;;;;25.20;99.90;;;;;;4972768;28;20263;-73
2022/09/06 09:05:50;;;;;;;32.97;30.75;;;25.30;99.90;;;;;;4965780;28;19990;-73
2022/09/06 09:08:34;;;;;;;31.85;29.85;;;25.40;99.90;;;;;;4957625;28;20055;-73
2022/09/06 09:11:09;;;;;;;32.28;30.27;;;25.30;99.90;;;;;;4963582;28;20074;-73
2022/09/06 09:13:47;;;;;;;31.73;29.67;;;25.40;99.90;;;;;;4961776;28;20050;-74
2022/09/06 09:16:15;;;;;;;33.58;31.02;;;25.70;99.90;;;;;;4965243;28;20156;-75
2022/09/06 09:18:47;;;;;;;32.08;29.95;;;25.80;99.90;;;;;;4989536;28;20085;-75
2022/09/06 09:21:19;;;;;;;31.27;29.48;;;25.80;99.90;;;;;;4988932;28;20123;-74
2022/09/06 09:23:53;;;;;;;32.55;30.45;;;26.20;99.90;;;;;;4988399;28;20746;-74
2022/09/06 09:26:22;;;;;;;32.63;30.35;;;26.30;99.90;;;;;;4989857;28;20054;-75
2022/09/06 09:29:08;;;;;;;32.53;30.45;;;26.40;99.90;;;;;;4989265;28;20418;-75
2022/09/06 09:31:55;;;;;;;32.72;30.30;;;26.50;99.90;;;;;;4991403;28;20042;-75
2022/09/06 09:34:34;;;;;;;31.92;30.02;;;26.90;99.90;;;;;;4974411;28;20046;-75
2022/09/06 09:37:13;;;;;;;33.17;30.88;;;27.10;99.90;;;;;;4990133;28;20038;-75
2022/09/06 09:40:01;;;;;;;32.22;30.23;;;27.10;99.90;;;;;;4984737;28;20454;-75
2022/09/06 09:42:34;;;;;;;33.08;31.08;;;27.20;99.90;;;;;;4990273;28;20038;-74
2022/09/06 09:45:20;;;;;;;32.60;30.63;;;26.90;99.90;;;;;;4997472;28;20081;-75
2022/09/06 09:47:46;;;;;;;32.40;30.40;;;26.80;99.90;;;;;;5004392;28;20046;-75
2022/09/06 09:50:32;;;;;;;34.15;32.00;;;27.00;99.90;;;;;;4970429;28;20053;-75
2022/09/06 09:53:13;;;;;;;32.63;30.52;;;27.20;99.90;;;;;;4995190;28;20549;-75
2022/09/06 09:55:41;;;;;;;31.73;29.70;;;27.20;99.90;;;;;;4985828;28;20231;-74
2022/09/06 09:58:19;;;;;;;34.22;32.03;;;26.40;99.90;;;;;;4996620;28;20081;-75
2022/09/06 10:00:46;;;;;;;32.33;30.40;;;26.70;99.90;;;;;;4987322;28;20074;-75
2022/09/06 10:03:22;;;;;;;32.88;30.80;;;27.50;99.90;;;;;;4988006;28;20057;-75
2022/09/06 10:05:57;;;;;;;32.53;30.52;;;27.60;99.90;;;;;;5003917;28;20057;-75
2022/09/06 10:08:31;;;;;;;32.08;29.98;;;27.00;99.90;;;;;;4991964;28;20115;-74
2022/09/06 10:10:58;;;;;;;34.15;32.05;;;27.30;99.90;;;;;;5008039;28;20073;-75
2022/09/06 10:13:33;;;;;;;33.50;31.20;;;26.70;99.90;;;;;;4990663;28;20730;-75
2022/09/06 10:16:01;;;;;;;33.25;31.25;;;27.10;99.90;;;;;;4988048;28;20070;-76
2022/09/06 10:18:31;;;;;;;33.55;31.27;;;27.20;99.90;;;;;;4987986;28;20448;-75
2022/09/06 10:21:18;;;;;;;33.63;31.38;;;27.70;99.90;;;;;;4994677;28;20035;-75
2022/09/06 10:24:10;;;;;;;33.90;31.83;;;27.40;99.90;;;;;;5006852;28;20047;-75
2022/09/06 10:27:01;;;;;;;34.20;32.10;;;26.80;99.90;;;;;;4991388;28;20034;-75
2022/09/06 10:29:51;;;;;;;34.30;32.08;;;27.10;99.90;;;;;;4996413;28;20737;-75
2022/09/06 10:32:40;;;;;;;34.25;31.92;;;27.60;99.90;;;;;;4986170;28;20096;-76
2022/09/06 10:35:27;;;;;;;33.10;31.00;;;27.80;99.90;;;;;;5007153;28;20070;-79
2022/09/06 10:38:34;;;;;;;33.35;31.35;;;28.00;99.90;;;;;;4997242;28;20525;-79
2022/09/06 10:41:27;;;;;;;33.17;31.27;;;28.20;99.90;;;;;;4976872;28;20043;-78
2022/09/06 10:44:15;;;;;;;33.72;31.30;;;28.40;99.90;;;;;;5003059;28;20116;-79
2022/09/06 10:46:48;;;;;;;34.03;31.85;;;28.10;99.90;;;;;;5000715;28;20101;-80
2022/09/06 10:49:18;;;;;;;32.92;30.48;;;28.30;99.90;;;;;;4996456;28;20418;-79
2022/09/06 10:51:59;;;;;;;32.15;30.15;;;28.50;99.90;;;;;;4984105;28;20039;-79
2022/09/06 10:54:29;;;;;;;32.47;30.27;;;28.60;99.90;;;;;;4992112;28;20050;-78
2022/09/06 10:57:01;;;;;;;33.60;31.23;;;28.50;99.90;;;;;;4996405;28;20180;-77
2022/09/06 10:59:32;;;;;;;33.63;31.45;;;28.20;99.90;;;;;;4987141;28;20070;-78
2022/09/06 11:02:25;;;;;;;34.28;31.80;;;28.20;99.90;;;;;;4980619;28;20050;-78
2022/09/06 11:04:59;;;;;;;34.00;31.77;;;27.60;99.90;;;;;;4993503;28;20501;-76
2022/09/06 11:07:51;;;;;;;34.60;32.15;;;28.20;99.90;;;;;;4988804;28;20339;-78
2022/09/06 11:10:44;;;;;;;35.75;33.13;;;28.80;99.90;;;;;;4984628;28;20269;-77
2022/09/06 11:13:15;;;;;;;33.95;31.75;;;28.40;99.90;;;;;;4982570;28;20061;-78
2022/09/06 11:15:52;;;;;;;35.35;32.70;;;27.70;99.90;;;;;;4986438;28;20541;-77
2022/09/06 11:18:31;;;;;;;35.03;32.72;;;27.50;99.90;;;;;;4992647;28;20046;-77
2022/09/06 11:21:07;;;;;;;31.33;29.35;;;27.50;99.90;;;;;;4991901;28;20244;-79
2022/09/06 11:24:01;;;;;;;30.48;28.40;;;27.30;99.90;;;;;;4993634;28;20533;-78
2022/09/06 11:26:49;;;;;;;32.08;29.88;;;27.40;99.90;;;;;;5003274;28;20058;-79
2022/09/06 11:29:18;;;;;;;31.48;29.48;;;27.60;99.90;;;;;;5003840;28;20135;-79
2022/09/06 11:31:50;;;;;;;30.73;28.83;;;27.70;99.90;;;;;;4998352;28;20054;-78
2022/09/06 11:34:37;;;;;;;31.77;29.38;;;27.70;99.90;;;;;;4991448;28;20038;-79
2022/09/06 11:37:06;;;;;;;29.85;27.88;;;27.90;99.90;;;;;;5002119;28;20101;-79
2022/09/06 11:39:41;;;;;;;31.33;29.08;;;28.30;99.90;;;;;;4993386;28;20542;-80
2022/09/06 11:43:01;;;;;;;30.08;28.17;;;28.40;99.90;;;;;;4996935;28;20096;-77
2022/09/06 11:45:54;;;;;;;31.02;28.92;;;28.70;99.90;;;;;;4998275;28;20099;-80
2022/09/06 11:48:32;;;;;;;31.30;29.40;;;28.50;99.90;;;;;;5001292;28;20497;-80
2022/09/06 11:51:05;;;;;;;31.73;29.60;;;28.20;99.90;;;;;;5009235;28;20410;-76
2022/09/06 11:53:47;;;;;;;30.90;28.90;;;28.40;99.90;;;;;;4992522;28;20087;-76
2022/09/06 11:56:29;;;;;;;31.13;29.17;;;28.70;99.90;;;;;;4996432;28;20099;-78
2022/09/06 11:59:11;;;;;;;30.85;28.90;;;29.10;99.90;;;;;;4993246;28;20130;-78
2022/09/06 12:01:39;;;;;;;30.30;28.40;;;29.10;99.90;;;;;;4983952;28;20046;-80
2022/09/06 12:04:07;;;;;;;30.73;28.83;;;29.10;99.90;;;;;;4999247;28;20281;-77
2022/09/06 12:07:09;;;;;;;31.90;29.77;;;29.10;99.90;;;;;;5005754;28;20726;-78
2022/09/06 12:09:39;;;;;;;31.10;29.20;;;29.10;99.90;;;;;;5007086;28;20042;-79
2022/09/06 12:12:08;;;;;;;31.60;29.52;;;29.00;99.90;;;;;;4999627;28;20037;-79
2022/09/06 12:14:45;;;;;;;32.00;29.92;;;28.40;99.90;;;;;;5002635;28;20042;-79
2022/09/06 12:17:12;;;;;;;31.63;29.25;;;28.70;99.90;;;;;;5001405;28;20042;-76
2022/09/06 12:19:55;;;;;;;30.85;28.95;;;28.70;99.90;;;;;;4992866;28;20116;-75
2022/09/06 12:22:39;;;;;;;31.42;29.30;;;28.50;99.90;;;;;;4992024;28;20046;-76
2022/09/06 12:25:16;;;;;;;31.30;29.15;;;28.30;99.90;;;;;;5008156;28;20472;-75
2022/09/06 12:27:53;;;;;;;30.90;28.83;;;28.40;99.90;;;;;;4991623;28;20077;-76
2022/09/06 12:30:44;;;;;;;30.38;28.48;;;28.20;99.90;;;;;;4980193;28;20509;-75
2022/09/06 12:33:47;;;;;;;31.48;29.58;;;27.80;99.90;;;;;;4984710;28;20050;-78
2022/09/06 12:36:18;;;;;;;30.75;28.65;;;28.00;99.90;;;;;;4969288;28;20051;-77
2022/09/06 12:39:24;;;;;;;29.95;27.95;;;28.40;99.90;;;;;;4985114;28;20077;-79
2022/09/06 12:41:55;;;;;;;31.73;29.40;;;28.90;99.90;;;;;;4955844;28;20050;-78
2022/09/06 12:44:37;;;;;;;31.65;29.73;;;28.50;99.90;;;;;;4963543;28;20053;-78
2022/09/06 12:47:29;;;;;;;32.65;30.38;;;27.90;99.90;;;;;;4978481;28;20254;-77
2022/09/06 12:50:24;;;;;;;30.73;28.88;;;27.70;99.90;;;;;;4995847;28;20117;-77
2022/09/06 12:53:02;;;;;;;31.23;29.23;;;28.20;99.90;;;;;;4990015;28;20073;-76
2022/09/06 12:55:31;;;;;;;31.60;29.50;;;28.10;99.90;;;;;;4982084;28;20251;-77
2022/09/06 12:58:02;;;;;;;30.15;28.10;;;28.20;99.90;;;;;;4984805;28;20485;-78
2022/09/06 13:00:36;;;;;;;31.27;29.25;;;28.70;99.90;;;;;;4981480;28;20104;-78